»·PEaware :: N6794H KLAX-KSAN

N6794H :: KLAX-KSAN

FLIGHT INFORMATION

Flight Status: Arrived
Operator: Privately registered:
United States
More flights under this callsign
Pilot: Austin B. (17780)
Aircraft: CESSNA 172 SKYHAWK
(C172)
More flights by this aircraft type
Origin: KLAX Los Angeles Intl
United States
Destination: KSAN San Diego Intl-Lindbergh
United States
More flights between these airports :: More routes between these airports
Route: +
File this flight plan on PilotEdge
Remarks:
Altitude:
(Current/Filed)
6,500ft
Speed:
(Current/Filed)
0kts
Departed: 11-Jan-18 07:59 PM
Arrived: 11-Jan-18 09:02 PM
Distance/Time
Traveled:
95nm/1:03
Distance/Time
To Go:
Arrived

Flight Plot

Page will automatically refresh every two minutes.


Map Options




Map Legend


Flown Route
Filed Route
Departure Airport
Arrival Airport
Navaid (VOR, NDB)
Fix

Horizontal Profiles

Position Reports

Time Latitude Longitude Heading Altitude Ground
Speed
11-Jan-18 19:49 33.933667 -118.399069 174 129ft 0kts
11-Jan-18 19:50 33.933667 -118.399069 174 129ft 0kts
11-Jan-18 19:51 33.933667 -118.399069 174 129ft 0kts
11-Jan-18 19:52 33.933667 -118.399069 174 129ft 0kts
11-Jan-18 19:53 33.933667 -118.399069 174 129ft 0kts
11-Jan-18 19:54 33.933667 -118.399069 174 129ft 0kts
11-Jan-18 19:55 33.933667 -118.399069 174 129ft 0kts
11-Jan-18 19:56 33.933667 -118.399069 174 129ft 0kts
11-Jan-18 19:57 33.934366 -118.398663 23 129ft 6kts
11-Jan-18 19:58 33.934774 -118.395986 83 129ft 9kts
11-Jan-18 19:59 33.935211 -118.391662 82 129ft 15kts
11-Jan-18 20:00 33.935781 -118.386149 82 129ft 17kts
11-Jan-18 20:01 33.936147 -118.383008 55 129ft 0kts
11-Jan-18 20:02 33.936328 -118.382824 28 129ft 2kts
11-Jan-18 20:03 33.936397 -118.382790 18 129ft 0kts
11-Jan-18 20:04 33.937277 -118.383502 264 129ft 8kts
11-Jan-18 20:05 33.935315 -118.405318 263 708ft 82kts
11-Jan-18 20:06 33.932970 -118.433388 266 1580ft 83kts
11-Jan-18 20:07 33.922642 -118.451754 193 2471ft 78kts
11-Jan-18 20:08 33.898173 -118.457583 193 3002ft 108kts
11-Jan-18 20:09 33.865919 -118.464586 191 2994ft 108kts
11-Jan-18 20:10 33.838149 -118.469653 191 2997ft 103kts
11-Jan-18 20:11 33.808971 -118.474612 191 2996ft 109kts
11-Jan-18 20:12 33.779473 -118.470206 152 2996ft 114kts
11-Jan-18 20:13 33.752345 -118.450245 151 2996ft 114kts
11-Jan-18 20:14 33.731410 -118.423353 104 2998ft 121kts
11-Jan-18 20:15 33.722617 -118.383276 104 2997ft 126kts
11-Jan-18 20:16 33.707849 -118.351054 136 3757ft 103kts
11-Jan-18 20:17 33.689629 -118.328487 137 4630ft 85kts
11-Jan-18 20:18 33.672092 -118.306949 137 5275ft 99kts
11-Jan-18 20:19 33.651764 -118.282308 136 5894ft 106kts
11-Jan-18 20:20 33.631487 -118.257652 136 6584ft 102kts
11-Jan-18 20:21 33.612230 -118.234193 135 7271ft 96kts
11-Jan-18 20:22 33.590945 -118.208474 135 7506ft 124kts
11-Jan-18 20:23 33.566637 -118.179328 134 7505ft 123kts
11-Jan-18 20:24 33.542572 -118.150264 133 7505ft 122kts
11-Jan-18 20:25 33.518725 -118.121428 133 7503ft 121kts
11-Jan-18 20:26 33.494934 -118.092668 133 7502ft 121kts
11-Jan-18 20:27 33.471216 -118.064019 132 7500ft 120kts
11-Jan-18 20:28 33.447659 -118.035587 132 7500ft 120kts
11-Jan-18 20:29 33.424127 -118.007211 132 7502ft 119kts
11-Jan-18 20:30 33.400775 -117.979073 131 7504ft 118kts
11-Jan-18 20:31 33.377639 -117.951218 130 7506ft 117kts
11-Jan-18 20:32 33.354662 -117.923577 129 7506ft 116kts
11-Jan-18 20:33 33.332050 -117.896397 129 7505ft 114kts
11-Jan-18 20:34 33.309803 -117.869677 128 7504ft 112kts
11-Jan-18 20:35 33.287912 -117.843403 128 7501ft 110kts
11-Jan-18 20:36 33.266121 -117.817175 141 7501ft 112kts
11-Jan-18 20:37 33.243942 -117.790648 141 7500ft 113kts
11-Jan-18 20:38 33.221672 -117.763988 141 7500ft 113kts
11-Jan-18 20:39 33.199444 -117.737386 141 7501ft 113kts
11-Jan-18 20:40 33.177072 -117.710629 141 7501ft 113kts
11-Jan-18 20:41 33.154758 -117.683960 141 7501ft 113kts
11-Jan-18 20:42 33.132623 -117.657242 140 7510ft 113kts
11-Jan-18 20:43 33.110487 -117.630449 140 7510ft 113kts
11-Jan-18 20:44 33.118424 -117.597859 41 7254ft 127kts
11-Jan-18 20:45 33.130435 -117.565133 80 6448ft 96kts
11-Jan-18 20:46 33.133461 -117.535253 80 5642ft 88kts
11-Jan-18 20:47 33.136781 -117.505075 79 5489ft 97kts
11-Jan-18 20:48 33.140275 -117.471125 79 5537ft 110kts
11-Jan-18 20:49 33.136444 -117.434190 104 5522ft 117kts
11-Jan-18 20:50 33.125939 -117.397154 104 5525ft 119kts
11-Jan-18 20:51 33.112289 -117.361372 135 5525ft 124kts
11-Jan-18 20:52 33.085996 -117.335077 146 5529ft 124kts
11-Jan-18 20:53 33.054678 -117.317608 157 5531ft 124kts
11-Jan-18 20:54 33.022553 -117.302975 160 5454ft 117kts
11-Jan-18 20:55 32.995887 -117.292251 160 5045ft 91kts
11-Jan-18 20:56 32.973315 -117.283117 160 4645ft 82kts
11-Jan-18 20:57 32.951626 -117.274232 160 4249ft 83kts
11-Jan-18 20:58 32.929180 -117.265455 162 3858ft 90kts
11-Jan-18 20:59 32.908455 -117.257644 162 3553ft 94kts
11-Jan-18 21:00 32.876632 -117.245469 161 3514ft 112kts
11-Jan-18 21:01 32.846564 -117.233878 161 3514ft 112kts
11-Jan-18 21:02 32.822041 -117.224369 161 3500ft 111kts
11-Jan-18 21:03 32.794642 -117.214652 163 2859ft 73kts
11-Jan-18 21:04 32.774793 -117.208406 162 2117ft 72kts
11-Jan-18 21:05 32.758392 -117.203136 165 1480ft 74kts
11-Jan-18 21:06 32.744880 -117.184479 110 977ft 74kts
11-Jan-18 21:07 32.731467 -117.172095 207 471ft 61kts
11-Jan-18 21:08 32.732650 -117.184318 349 21ft 7kts
11-Jan-18 21:09 32.733006 -117.182631 104 21ft 11kts
11-Jan-18 21:10 32.732388 -117.180046 103 21ft 6kts
11-Jan-18 21:11 32.732894 -117.178965 100 21ft 0kts
11-Jan-18 21:12 32.732894 -117.178965 100 21ft 0kts

Navigation Log

Ident Type
Flight plan parsing failed, navigation log unavailable